<?xml version='1.0' encoding='UTF-8'?><gpx version="1.1" creator="JPX - https://github.com/jenetics/jpx" xmlns="http://www.topografix.com/GPX/1/1"><trk><trkseg><trkpt lat="40.0474957" lon="8.6303966"><ele>50.666666666666664</ele><time>2026-04-05T14:31:18.094Z</time></trkpt><trkpt lat="40.0474288" lon="8.6304723"><ele>50.33333333333333</ele><time>2026-04-05T14:31:20.087Z</time></trkpt><trkpt lat="40.0473634" lon="8.6305107"><ele>50.0</ele><time>2026-04-05T14:31:21.085Z</time></trkpt><trkpt lat="40.0472894" lon="8.630569"><ele>49.666666666666664</ele><time>2026-04-05T14:31:22.078Z</time></trkpt><trkpt lat="40.0472156" lon="8.6306362"><ele>49.33333333333333</ele><time>2026-04-05T14:31:23.084Z</time></trkpt><trkpt lat="40.0471375" lon="8.6307048"><ele>49.0</ele><time>2026-04-05T14:31:24.083Z</time></trkpt><trkpt lat="40.047054" lon="8.630775"><ele>49.0</ele><time>2026-04-05T14:31:25.082Z</time></trkpt><trkpt lat="40.0469677" lon="8.6308607"><ele>49.0</ele><time>2026-04-05T14:31:26.079Z</time></trkpt><trkpt lat="40.0468808" lon="8.6309558"><ele>49.0</ele><time>2026-04-05T14:31:27.074Z</time></trkpt><trkpt lat="40.0467921" lon="8.6310552"><ele>49.0</ele><time>2026-04-05T14:31:28.062Z</time></trkpt><trkpt lat="40.0467061" lon="8.6311539"><ele>49.400000000000006</ele><time>2026-04-05T14:31:29.08Z</time></trkpt><trkpt lat="40.0466135" lon="8.6312541"><ele>49.8</ele><time>2026-04-05T14:31:30.069Z</time></trkpt><trkpt lat="40.0465272" lon="8.6313488"><ele>50.2</ele><time>2026-04-05T14:31:31.071Z</time></trkpt><trkpt lat="40.046454" lon="8.6314253"><ele>50.599999999999994</ele><time>2026-04-05T14:31:32.066Z</time></trkpt><trkpt lat="40.0463835" lon="8.6315011"><ele>51.0</ele><time>2026-04-05T14:31:33.087Z</time></trkpt><trkpt lat="40.0463116" lon="8.6315641"><ele>51.0</ele><time>2026-04-05T14:31:34.065Z</time></trkpt><trkpt lat="40.0462378" lon="8.6315806"><ele>51.0</ele><time>2026-04-05T14:31:35.064Z</time></trkpt><trkpt lat="40.046163" lon="8.6315639"><ele>51.0</ele><time>2026-04-05T14:31:36.066Z</time></trkpt><trkpt lat="40.0460998" lon="8.6314982"><ele>51.0</ele><time>2026-04-05T14:31:37.065Z</time></trkpt><trkpt lat="40.046056" lon="8.6314106"><ele>51.0</ele><time>2026-04-05T14:31:38.069Z</time></trkpt><trkpt lat="40.0459871" lon="8.6311473"><ele>50.75</ele><time>2026-04-05T14:31:40.09Z</time></trkpt><trkpt lat="40.0459579" lon="8.6309968"><ele>50.5</ele><time>2026-04-05T14:31:41.097Z</time></trkpt><trkpt lat="40.0459244" lon="8.6308402"><ele>50.25</ele><time>2026-04-05T14:31:42.164Z</time></trkpt><trkpt lat="40.0458882" lon="8.6306848"><ele>50.0</ele><time>2026-04-05T14:31:43.074Z</time></trkpt><trkpt lat="40.0458553" lon="8.6305253"><ele>50.0</ele><time>2026-04-05T14:31:44.076Z</time></trkpt><trkpt lat="40.0458191" lon="8.6303644"><ele>50.0</ele><time>2026-04-05T14:31:45.079Z</time></trkpt><trkpt lat="40.0457888" lon="8.6301969"><ele>50.0</ele><time>2026-04-05T14:31:46.115Z</time></trkpt><trkpt lat="40.0457582" lon="8.630022"><ele>50.0</ele><time>2026-04-05T14:31:47.076Z</time></trkpt><trkpt lat="40.0457266" lon="8.6298372"><ele>49.75</ele><time>2026-04-05T14:31:48.066Z</time></trkpt><trkpt lat="40.0456947" lon="8.6296565"><ele>49.5</ele><time>2026-04-05T14:31:49.069Z</time></trkpt><trkpt lat="40.0456625" lon="8.6294688"><ele>49.25</ele><time>2026-04-05T14:31:50.069Z</time></trkpt><trkpt lat="40.0456282" lon="8.6292754"><ele>49.0</ele><time>2026-04-05T14:31:51.079Z</time></trkpt><trkpt lat="40.0455875" lon="8.6290826"><ele>48.0</ele><time>2026-04-05T14:31:52.067Z</time></trkpt><trkpt lat="40.0455492" lon="8.6288932"><ele>47.0</ele><time>2026-04-05T14:31:53.07Z</time></trkpt><trkpt lat="40.0455116" lon="8.6286993"><ele>46.0</ele><time>2026-04-05T14:31:54.072Z</time></trkpt><trkpt lat="40.0454773" lon="8.6285035"><ele>46.0</ele><time>2026-04-05T14:31:55.074Z</time></trkpt><trkpt lat="40.0454403" lon="8.6283175"><ele>46.0</ele><time>2026-04-05T14:31:56.101Z</time></trkpt><trkpt lat="40.045405" lon="8.6281413"><ele>46.0</ele><time>2026-04-05T14:31:57.078Z</time></trkpt><trkpt lat="40.045378" lon="8.6279539"><ele>46.0</ele><time>2026-04-05T14:31:58.085Z</time></trkpt><trkpt lat="40.0453616" lon="8.6277656"><ele>46.75</ele><time>2026-04-05T14:31:59.076Z</time></trkpt><trkpt lat="40.0453562" lon="8.6275721"><ele>47.5</ele><time>2026-04-05T14:32:00.07Z</time></trkpt><trkpt lat="40.045357" lon="8.6273784"><ele>48.25</ele><time>2026-04-05T14:32:01.079Z</time></trkpt><trkpt lat="40.0453595" lon="8.6271815"><ele>49.0</ele><time>2026-04-05T14:32:02.079Z</time></trkpt><trkpt lat="40.0453682" lon="8.6269793"><ele>48.33333333333333</ele><time>2026-04-05T14:32:03.084Z</time></trkpt><trkpt lat="40.0453741" lon="8.6267729"><ele>47.666666666666664</ele><time>2026-04-05T14:32:04.072Z</time></trkpt><trkpt lat="40.0453758" lon="8.6265708"><ele>47.0</ele><time>2026-04-05T14:32:05.094Z</time></trkpt><trkpt lat="40.0453863" lon="8.626374"><ele>47.0</ele><time>2026-04-05T14:32:06.083Z</time></trkpt><trkpt lat="40.0453982" lon="8.6261818"><ele>47.0</ele><time>2026-04-05T14:32:07.089Z</time></trkpt><trkpt lat="40.0454069" lon="8.6259895"><ele>47.0</ele><time>2026-04-05T14:32:08.077Z</time></trkpt><trkpt lat="40.0454008" lon="8.6257927"><ele>47.0</ele><time>2026-04-05T14:32:09.088Z</time></trkpt><trkpt lat="40.0453792" lon="8.6256022"><ele>46.666666666666664</ele><time>2026-04-05T14:32:10.079Z</time></trkpt><trkpt lat="40.0453395" lon="8.6254095"><ele>46.333333333333336</ele><time>2026-04-05T14:32:11.076Z</time></trkpt><trkpt lat="40.0452932" lon="8.6252234"><ele>46.0</ele><time>2026-04-05T14:32:12.084Z</time></trkpt><trkpt lat="40.0452472" lon="8.6250276"><ele>45.75</ele><time>2026-04-05T14:32:13.076Z</time></trkpt><trkpt lat="40.0452036" lon="8.6248317"><ele>45.5</ele><time>2026-04-05T14:32:14.078Z</time></trkpt><trkpt lat="40.0451627" lon="8.6246461"><ele>45.25</ele><time>2026-04-05T14:32:15.077Z</time></trkpt><trkpt lat="40.0451261" lon="8.6244692"><ele>45.0</ele><time>2026-04-05T14:32:16.078Z</time></trkpt><trkpt lat="40.0450922" lon="8.6243076"><ele>45.0</ele><time>2026-04-05T14:32:17.093Z</time></trkpt><trkpt lat="40.0450695" lon="8.6241584"><ele>45.0</ele><time>2026-04-05T14:32:18.084Z</time></trkpt><trkpt lat="40.0450792" lon="8.6240036"><ele>45.0</ele><time>2026-04-05T14:32:19.077Z</time></trkpt><trkpt lat="40.0451174" lon="8.6238386"><ele>45.0</ele><time>2026-04-05T14:32:20.079Z</time></trkpt><trkpt lat="40.0451777" lon="8.6236874"><ele>45.0</ele><time>2026-04-05T14:32:21.076Z</time></trkpt><trkpt lat="40.0452416" lon="8.6235318"><ele>45.0</ele><time>2026-04-05T14:32:22.081Z</time></trkpt><trkpt lat="40.0453165" lon="8.6233806"><ele>45.0</ele><time>2026-04-05T14:32:23.079Z</time></trkpt><trkpt lat="40.0453842" lon="8.623225"><ele>45.0</ele><time>2026-04-05T14:32:24.082Z</time></trkpt><trkpt lat="40.0454418" lon="8.6230656"><ele>45.0</ele><time>2026-04-05T14:32:25.089Z</time></trkpt><trkpt lat="40.0454906" lon="8.6229022"><ele>45.0</ele><time>2026-04-05T14:32:26.08Z</time></trkpt><trkpt lat="40.0455181" lon="8.6227338"><ele>45.0</ele><time>2026-04-05T14:32:27.088Z</time></trkpt><trkpt lat="40.0455319" lon="8.6225583"><ele>45.0</ele><time>2026-04-05T14:32:28.084Z</time></trkpt><trkpt lat="40.0455204" lon="8.6223667"><ele>45.0</ele><time>2026-04-05T14:32:29.095Z</time></trkpt><trkpt lat="40.0454976" lon="8.6221762"><ele>45.0</ele><time>2026-04-05T14:32:30.083Z</time></trkpt><trkpt lat="40.0454774" lon="8.6219932"><ele>45.0</ele><time>2026-04-05T14:32:31.097Z</time></trkpt><trkpt lat="40.0454364" lon="8.621826"><ele>45.0</ele><time>2026-04-05T14:32:32.077Z</time></trkpt><trkpt lat="40.0453868" lon="8.6216566"><ele>45.0</ele><time>2026-04-05T14:32:33.08Z</time></trkpt><trkpt lat="40.0453214" lon="8.6215011"><ele>45.0</ele><time>2026-04-05T14:32:34.092Z</time></trkpt><trkpt lat="40.0452329" lon="8.6213502"><ele>45.0</ele><time>2026-04-05T14:32:35.076Z</time></trkpt><trkpt lat="40.0451283" lon="8.6212109"><ele>45.0</ele><time>2026-04-05T14:32:36.084Z</time></trkpt><trkpt lat="40.045011" lon="8.6210602"><ele>43.666666666666664</ele><time>2026-04-05T14:32:37.067Z</time></trkpt><trkpt lat="40.0448923" lon="8.6209126"><ele>42.33333333333333</ele><time>2026-04-05T14:32:38.066Z</time></trkpt><trkpt lat="40.0447656" lon="8.6207585"><ele>41.0</ele><time>2026-04-05T14:32:39.073Z</time></trkpt><trkpt lat="40.0446466" lon="8.6206036"><ele>41.0</ele><time>2026-04-05T14:32:40.073Z</time></trkpt><trkpt lat="40.0445194" lon="8.6204384"><ele>41.0</ele><time>2026-04-05T14:32:41.084Z</time></trkpt><trkpt lat="40.0443941" lon="8.6202854"><ele>41.0</ele><time>2026-04-05T14:32:42.083Z</time></trkpt><trkpt lat="40.0442714" lon="8.6201339"><ele>40.666666666666664</ele><time>2026-04-05T14:32:43.082Z</time></trkpt><trkpt lat="40.0441447" lon="8.6199803"><ele>40.333333333333336</ele><time>2026-04-05T14:32:44.084Z</time></trkpt><trkpt lat="40.0440173" lon="8.6198242"><ele>40.0</ele><time>2026-04-05T14:32:45.076Z</time></trkpt><trkpt lat="40.043893" lon="8.6196686"><ele>40.0</ele><time>2026-04-05T14:32:46.082Z</time></trkpt><trkpt lat="40.043762" lon="8.6195127"><ele>40.0</ele><time>2026-04-05T14:32:47.08Z</time></trkpt><trkpt lat="40.0436356" lon="8.6193544"><ele>40.0</ele><time>2026-04-05T14:32:48.082Z</time></trkpt><trkpt lat="40.0435092" lon="8.6191922"><ele>39.333333333333336</ele><time>2026-04-05T14:32:49.083Z</time></trkpt><trkpt lat="40.0433848" lon="8.619033"><ele>38.666666666666664</ele><time>2026-04-05T14:32:50.081Z</time></trkpt><trkpt lat="40.0432585" lon="8.6188771"><ele>38.0</ele><time>2026-04-05T14:32:51.077Z</time></trkpt><trkpt lat="40.043123" lon="8.6187222"><ele>38.33333333333333</ele><time>2026-04-05T14:32:52.082Z</time></trkpt><trkpt lat="40.0429982" lon="8.6185615"><ele>38.666666666666664</ele><time>2026-04-05T14:32:53.086Z</time></trkpt><trkpt lat="40.0428775" lon="8.6184033"><ele>39.0</ele><time>2026-04-05T14:32:54.085Z</time></trkpt><trkpt lat="40.0427535" lon="8.6182484"><ele>39.0</ele><time>2026-04-05T14:32:55.09Z</time></trkpt><trkpt lat="40.0426268" lon="8.6180925"><ele>39.0</ele><time>2026-04-05T14:32:56.097Z</time></trkpt><trkpt lat="40.0424968" lon="8.6179378"><ele>39.0</ele><time>2026-04-05T14:32:57.08Z</time></trkpt><trkpt lat="40.0423659" lon="8.6178021"><ele>38.666666666666664</ele><time>2026-04-05T14:32:58.086Z</time></trkpt><trkpt lat="40.0422213" lon="8.6176685"><ele>38.33333333333333</ele><time>2026-04-05T14:32:59.079Z</time></trkpt><trkpt lat="40.0420769" lon="8.6175326"><ele>38.0</ele><time>2026-04-05T14:33:00.075Z</time></trkpt><trkpt lat="40.0419325" lon="8.6174013"><ele>38.0</ele><time>2026-04-05T14:33:01.077Z</time></trkpt><trkpt lat="40.0417866" lon="8.617271"><ele>38.0</ele><time>2026-04-05T14:33:02.082Z</time></trkpt><trkpt lat="40.0416432" lon="8.6171372"><ele>38.0</ele><time>2026-04-05T14:33:03.093Z</time></trkpt><trkpt lat="40.0414941" lon="8.6170044"><ele>37.666666666666664</ele><time>2026-04-05T14:33:04.085Z</time></trkpt><trkpt lat="40.0413504" lon="8.6168705"><ele>37.333333333333336</ele><time>2026-04-05T14:33:05.076Z</time></trkpt><trkpt lat="40.0412012" lon="8.6167386"><ele>37.0</ele><time>2026-04-05T14:33:06.081Z</time></trkpt><trkpt lat="40.0410474" lon="8.6166064"><ele>37.0</ele><time>2026-04-05T14:33:07.079Z</time></trkpt><trkpt lat="40.0408969" lon="8.6164691"><ele>37.0</ele><time>2026-04-05T14:33:08.084Z</time></trkpt><trkpt lat="40.0407509" lon="8.6163302"><ele>37.0</ele><time>2026-04-05T14:33:09.098Z</time></trkpt><trkpt lat="40.0406071" lon="8.6161911"><ele>36.0</ele><time>2026-04-05T14:33:10.077Z</time></trkpt><trkpt lat="40.0404651" lon="8.6160636"><ele>35.0</ele><time>2026-04-05T14:33:11.087Z</time></trkpt><trkpt lat="40.0403198" lon="8.6159311"><ele>34.0</ele><time>2026-04-05T14:33:12.075Z</time></trkpt><trkpt lat="40.0401772" lon="8.6158095"><ele>34.0</ele><time>2026-04-05T14:33:13.08Z</time></trkpt><trkpt lat="40.0400426" lon="8.6157024"><ele>34.0</ele><time>2026-04-05T14:33:14.084Z</time></trkpt><trkpt lat="40.039918" lon="8.6155942"><ele>34.0</ele><time>2026-04-05T14:33:15.09Z</time></trkpt><trkpt lat="40.0398048" lon="8.6154895"><ele>34.0</ele><time>2026-04-05T14:33:16.098Z</time></trkpt><trkpt lat="40.0397032" lon="8.6153783"><ele>33.5</ele><time>2026-04-05T14:33:17.084Z</time></trkpt><trkpt lat="40.0396169" lon="8.6152466"><ele>33.0</ele><time>2026-04-05T14:33:18.093Z</time></trkpt><trkpt lat="40.0395368" lon="8.6151016"><ele>32.5</ele><time>2026-04-05T14:33:19.08Z</time></trkpt><trkpt lat="40.0394754" lon="8.6149458"><ele>32.0</ele><time>2026-04-05T14:33:20.073Z</time></trkpt><trkpt lat="40.0394353" lon="8.6147872"><ele>32.0</ele><time>2026-04-05T14:33:21.079Z</time></trkpt><trkpt lat="40.0394156" lon="8.6146261"><ele>32.0</ele><time>2026-04-05T14:33:22.077Z</time></trkpt><trkpt lat="40.039417" lon="8.6144527"><ele>32.0</ele><time>2026-04-05T14:33:23.082Z</time></trkpt><trkpt lat="40.039429" lon="8.6142753"><ele>32.0</ele><time>2026-04-05T14:33:24.09Z</time></trkpt><trkpt lat="40.0394518" lon="8.6140949"><ele>32.0</ele><time>2026-04-05T14:33:25.082Z</time></trkpt><trkpt lat="40.0394823" lon="8.6139106"><ele>32.0</ele><time>2026-04-05T14:33:26.081Z</time></trkpt><trkpt lat="40.0395092" lon="8.6137174"><ele>32.0</ele><time>2026-04-05T14:33:27.076Z</time></trkpt><trkpt lat="40.0395395" lon="8.6135197"><ele>32.0</ele><time>2026-04-05T14:33:28.077Z</time></trkpt><trkpt lat="40.0395706" lon="8.6133218"><ele>32.0</ele><time>2026-04-05T14:33:29.083Z</time></trkpt><trkpt lat="40.0396058" lon="8.6131221"><ele>32.0</ele><time>2026-04-05T14:33:30.085Z</time></trkpt><trkpt lat="40.039641" lon="8.6129246"><ele>32.0</ele><time>2026-04-05T14:33:31.103Z</time></trkpt><trkpt lat="40.0396694" lon="8.612735"><ele>31.333333333333332</ele><time>2026-04-05T14:33:32.08Z</time></trkpt><trkpt lat="40.0396861" lon="8.6125337"><ele>30.666666666666664</ele><time>2026-04-05T14:33:33.093Z</time></trkpt><trkpt lat="40.0396918" lon="8.6123255"><ele>30.0</ele><time>2026-04-05T14:33:34.082Z</time></trkpt><trkpt lat="40.0396883" lon="8.6121044"><ele>29.333333333333336</ele><time>2026-04-05T14:33:35.081Z</time></trkpt><trkpt lat="40.0396842" lon="8.6118857"><ele>28.666666666666668</ele><time>2026-04-05T14:33:36.077Z</time></trkpt><trkpt lat="40.0396798" lon="8.6116632"><ele>28.0</ele><time>2026-04-05T14:33:37.083Z</time></trkpt><trkpt lat="40.0396719" lon="8.6114387"><ele>28.0</ele><time>2026-04-05T14:33:38.079Z</time></trkpt><trkpt lat="40.0396641" lon="8.6112181"><ele>28.0</ele><time>2026-04-05T14:33:39.084Z</time></trkpt><trkpt lat="40.0396586" lon="8.6109927"><ele>28.0</ele><time>2026-04-05T14:33:40.099Z</time></trkpt><trkpt lat="40.0396534" lon="8.6107622"><ele>28.0</ele><time>2026-04-05T14:33:41.076Z</time></trkpt><trkpt lat="40.0396495" lon="8.6105367"><ele>28.0</ele><time>2026-04-05T14:33:42.084Z</time></trkpt><trkpt lat="40.0396432" lon="8.6103106"><ele>28.0</ele><time>2026-04-05T14:33:43.084Z</time></trkpt><trkpt lat="40.0396383" lon="8.6100902"><ele>27.666666666666668</ele><time>2026-04-05T14:33:44.085Z</time></trkpt><trkpt lat="40.0396407" lon="8.6098735"><ele>27.333333333333336</ele><time>2026-04-05T14:33:45.079Z</time></trkpt><trkpt lat="40.0396394" lon="8.6096557"><ele>27.0</ele><time>2026-04-05T14:33:46.081Z</time></trkpt><trkpt lat="40.0396356" lon="8.6094406"><ele>27.0</ele><time>2026-04-05T14:33:47.081Z</time></trkpt><trkpt lat="40.0396318" lon="8.6092266"><ele>27.0</ele><time>2026-04-05T14:33:48.1Z</time></trkpt><trkpt lat="40.0396274" lon="8.6090161"><ele>27.0</ele><time>2026-04-05T14:33:49.124Z</time></trkpt><trkpt lat="40.0396185" lon="8.6088099"><ele>27.0</ele><time>2026-04-05T14:33:50.075Z</time></trkpt><trkpt lat="40.039599" lon="8.6085962"><ele>27.0</ele><time>2026-04-05T14:33:51.087Z</time></trkpt><trkpt lat="40.039565" lon="8.6083881"><ele>27.0</ele><time>2026-04-05T14:33:52.096Z</time></trkpt><trkpt lat="40.0395244" lon="8.6081733"><ele>27.0</ele><time>2026-04-05T14:33:53.084Z</time></trkpt><trkpt lat="40.0394889" lon="8.6079514"><ele>27.0</ele><time>2026-04-05T14:33:54.078Z</time></trkpt><trkpt lat="40.0394477" lon="8.607729"><ele>27.0</ele><time>2026-04-05T14:33:55.084Z</time></trkpt><trkpt lat="40.0394075" lon="8.6075108"><ele>27.0</ele><time>2026-04-05T14:33:56.086Z</time></trkpt><trkpt lat="40.0393641" lon="8.6072822"><ele>27.0</ele><time>2026-04-05T14:33:57.081Z</time></trkpt><trkpt lat="40.0393213" lon="8.607055"><ele>27.0</ele><time>2026-04-05T14:33:58.08Z</time></trkpt><trkpt lat="40.0392777" lon="8.6068249"><ele>27.0</ele><time>2026-04-05T14:33:59.08Z</time></trkpt><trkpt lat="40.0392407" lon="8.6066058"><ele>27.0</ele><time>2026-04-05T14:34:00.081Z</time></trkpt><trkpt lat="40.039206" lon="8.6064073"><ele>27.0</ele><time>2026-04-05T14:34:01.081Z</time></trkpt><trkpt lat="40.0391761" lon="8.6062156"><ele>26.5</ele><time>2026-04-05T14:34:02.084Z</time></trkpt><trkpt lat="40.0391436" lon="8.6060492"><ele>26.0</ele><time>2026-04-05T14:34:03.081Z</time></trkpt><trkpt lat="40.0391148" lon="8.6058957"><ele>25.5</ele><time>2026-04-05T14:34:04.08Z</time></trkpt><trkpt lat="40.0390804" lon="8.6057443"><ele>25.0</ele><time>2026-04-05T14:34:05.078Z</time></trkpt><trkpt lat="40.039052" lon="8.6056054"><ele>25.0</ele><time>2026-04-05T14:34:06.081Z</time></trkpt><trkpt lat="40.0390241" lon="8.6054829"><ele>25.0</ele><time>2026-04-05T14:34:07.078Z</time></trkpt><trkpt lat="40.0389838" lon="8.6053702"><ele>25.0</ele><time>2026-04-05T14:34:08.076Z</time></trkpt><trkpt lat="40.0389317" lon="8.6052597"><ele>25.0</ele><time>2026-04-05T14:34:09.081Z</time></trkpt><trkpt lat="40.0388812" lon="8.605148"><ele>25.0</ele><time>2026-04-05T14:34:10.068Z</time></trkpt><trkpt lat="40.0388262" lon="8.6050449"><ele>25.000000000000004</ele><time>2026-04-05T14:34:11.083Z</time></trkpt><trkpt lat="40.0387678" lon="8.6049503"><ele>25.0</ele><time>2026-04-05T14:34:12.082Z</time></trkpt><trkpt lat="40.0387167" lon="8.604862"><ele>25.0</ele><time>2026-04-05T14:34:13.083Z</time></trkpt><trkpt lat="40.0386749" lon="8.6047807"><ele>25.0</ele><time>2026-04-05T14:34:14.081Z</time></trkpt><trkpt lat="40.0386405" lon="8.6047112"><ele>25.000000000000004</ele><time>2026-04-05T14:34:15.082Z</time></trkpt><trkpt lat="40.0385747" lon="8.6046341"><ele>25.0</ele><time>2026-04-05T14:34:17.082Z</time></trkpt><trkpt lat="40.0385106" lon="8.6046463"><ele>25.0</ele><time>2026-04-05T14:34:19.076Z</time></trkpt><trkpt lat="40.0384191" lon="8.6047213"><ele>25.0</ele><time>2026-04-05T14:34:21.087Z</time></trkpt><trkpt lat="40.0383559" lon="8.6047742"><ele>25.0</ele><time>2026-04-05T14:34:22.074Z</time></trkpt><trkpt lat="40.0382814" lon="8.6048298"><ele>25.0</ele><time>2026-04-05T14:34:23.077Z</time></trkpt><trkpt lat="40.0381988" lon="8.604875"><ele>25.0</ele><time>2026-04-05T14:34:24.082Z</time></trkpt><trkpt lat="40.0381085" lon="8.604905"><ele>24.75</ele><time>2026-04-05T14:34:25.089Z</time></trkpt><trkpt lat="40.0380042" lon="8.6049257"><ele>24.5</ele><time>2026-04-05T14:34:26.083Z</time></trkpt><trkpt lat="40.0378839" lon="8.6049355"><ele>24.25</ele><time>2026-04-05T14:34:27.092Z</time></trkpt><trkpt lat="40.0377547" lon="8.6049257"><ele>24.0</ele><time>2026-04-05T14:34:28.073Z</time></trkpt><trkpt lat="40.037602" lon="8.6049004"><ele>23.666666666666668</ele><time>2026-04-05T14:34:29.083Z</time></trkpt><trkpt lat="40.0374402" lon="8.6048697"><ele>23.333333333333336</ele><time>2026-04-05T14:34:30.077Z</time></trkpt><trkpt lat="40.0372735" lon="8.6048299"><ele>23.0</ele><time>2026-04-05T14:34:31.083Z</time></trkpt><trkpt lat="40.0371009" lon="8.6047991"><ele>23.0</ele><time>2026-04-05T14:34:32.089Z</time></trkpt><trkpt lat="40.0369197" lon="8.6047703"><ele>23.0</ele><time>2026-04-05T14:34:33.073Z</time></trkpt><trkpt lat="40.036738" lon="8.6047375"><ele>23.0</ele><time>2026-04-05T14:34:34.076Z</time></trkpt><trkpt lat="40.0365628" lon="8.6047007"><ele>23.0</ele><time>2026-04-05T14:34:35.083Z</time></trkpt><trkpt lat="40.0363905" lon="8.6046595"><ele>23.0</ele><time>2026-04-05T14:34:36.08Z</time></trkpt><trkpt lat="40.0362192" lon="8.6046201"><ele>23.0</ele><time>2026-04-05T14:34:37.085Z</time></trkpt><trkpt lat="40.036045" lon="8.6045867"><ele>23.0</ele><time>2026-04-05T14:34:38.074Z</time></trkpt><trkpt lat="40.0358654" lon="8.6045647"><ele>23.0</ele><time>2026-04-05T14:34:39.102Z</time></trkpt><trkpt lat="40.0356828" lon="8.6045348"><ele>23.0</ele><time>2026-04-05T14:34:40.085Z</time></trkpt><trkpt lat="40.0355015" lon="8.6044992"><ele>23.0</ele><time>2026-04-05T14:34:41.084Z</time></trkpt><trkpt lat="40.0353213" lon="8.604467"><ele>23.0</ele><time>2026-04-05T14:34:42.076Z</time></trkpt><trkpt lat="40.0351382" lon="8.6044406"><ele>23.0</ele><time>2026-04-05T14:34:43.073Z</time></trkpt><trkpt lat="40.0349538" lon="8.6044107"><ele>23.0</ele><time>2026-04-05T14:34:44.082Z</time></trkpt><trkpt lat="40.034773" lon="8.6043781"><ele>23.0</ele><time>2026-04-05T14:34:45.088Z</time></trkpt><trkpt lat="40.0345864" lon="8.6043474"><ele>23.0</ele><time>2026-04-05T14:34:46.078Z</time></trkpt><trkpt lat="40.0344001" lon="8.6043036"><ele>23.0</ele><time>2026-04-05T14:34:47.081Z</time></trkpt><trkpt lat="40.034216" lon="8.6042641"><ele>23.0</ele><time>2026-04-05T14:34:48.081Z</time></trkpt><trkpt lat="40.0340425" lon="8.6042267"><ele>23.0</ele><time>2026-04-05T14:34:49.076Z</time></trkpt><trkpt lat="40.0338764" lon="8.604188"><ele>23.333333333333336</ele><time>2026-04-05T14:34:50.087Z</time></trkpt><trkpt lat="40.0337095" lon="8.6041457"><ele>23.666666666666668</ele><time>2026-04-05T14:34:51.082Z</time></trkpt><trkpt lat="40.0335479" lon="8.6041063"><ele>24.0</ele><time>2026-04-05T14:34:52.088Z</time></trkpt><trkpt lat="40.0333926" lon="8.6040519"><ele>23.333333333333332</ele><time>2026-04-05T14:34:53.087Z</time></trkpt><trkpt lat="40.0332395" lon="8.6040058"><ele>22.666666666666664</ele><time>2026-04-05T14:34:54.083Z</time></trkpt><trkpt lat="40.0330829" lon="8.6039648"><ele>22.0</ele><time>2026-04-05T14:34:55.083Z</time></trkpt><trkpt lat="40.0329249" lon="8.6039203"><ele>22.0</ele><time>2026-04-05T14:34:56.075Z</time></trkpt><trkpt lat="40.0327638" lon="8.6038938"><ele>22.0</ele><time>2026-04-05T14:34:57.078Z</time></trkpt><trkpt lat="40.0325984" lon="8.6038756"><ele>22.0</ele><time>2026-04-05T14:34:58.1Z</time></trkpt><trkpt lat="40.0324433" lon="8.6038685"><ele>21.75</ele><time>2026-04-05T14:34:59.082Z</time></trkpt><trkpt lat="40.032291" lon="8.6038629"><ele>21.5</ele><time>2026-04-05T14:35:00.08Z</time></trkpt><trkpt lat="40.0321526" lon="8.6038565"><ele>21.25</ele><time>2026-04-05T14:35:01.076Z</time></trkpt><trkpt lat="40.0320245" lon="8.6038516"><ele>21.0</ele><time>2026-04-05T14:35:02.086Z</time></trkpt><trkpt lat="40.0318999" lon="8.6038521"><ele>21.0</ele><time>2026-04-05T14:35:03.079Z</time></trkpt><trkpt lat="40.0317786" lon="8.603845"><ele>21.0</ele><time>2026-04-05T14:35:04.082Z</time></trkpt><trkpt lat="40.0316623" lon="8.6038379"><ele>21.0</ele><time>2026-04-05T14:35:05.078Z</time></trkpt><trkpt lat="40.0315618" lon="8.603829"><ele>21.0</ele><time>2026-04-05T14:35:06.085Z</time></trkpt><trkpt lat="40.0314805" lon="8.6038358"><ele>21.0</ele><time>2026-04-05T14:35:07.079Z</time></trkpt><trkpt lat="40.0313868" lon="8.6038395"><ele>20.8</ele><time>2026-04-05T14:35:09.083Z</time></trkpt><trkpt lat="40.0313196" lon="8.6038274"><ele>20.6</ele><time>2026-04-05T14:35:14.073Z</time></trkpt><trkpt lat="40.0312205" lon="8.6037661"><ele>20.4</ele><time>2026-04-05T14:35:16.088Z</time></trkpt><trkpt lat="40.0311583" lon="8.6036989"><ele>20.2</ele><time>2026-04-05T14:35:17.078Z</time></trkpt><trkpt lat="40.0310743" lon="8.6036251"><ele>20.0</ele><time>2026-04-05T14:35:18.094Z</time></trkpt><trkpt lat="40.0309754" lon="8.6035418"><ele>20.0</ele><time>2026-04-05T14:35:19.088Z</time></trkpt><trkpt lat="40.0308682" lon="8.6034595"><ele>20.0</ele><time>2026-04-05T14:35:20.078Z</time></trkpt><trkpt lat="40.0307657" lon="8.6033711"><ele>20.0</ele><time>2026-04-05T14:35:21.084Z</time></trkpt><trkpt lat="40.0306504" lon="8.6032745"><ele>20.0</ele><time>2026-04-05T14:35:22.076Z</time></trkpt><trkpt lat="40.0305293" lon="8.6031655"><ele>19.75</ele><time>2026-04-05T14:35:23.075Z</time></trkpt><trkpt lat="40.0304061" lon="8.6030551"><ele>19.5</ele><time>2026-04-05T14:35:24.076Z</time></trkpt><trkpt lat="40.0302823" lon="8.6029387"><ele>19.25</ele><time>2026-04-05T14:35:25.075Z</time></trkpt><trkpt lat="40.0301745" lon="8.6028209"><ele>19.0</ele><time>2026-04-05T14:35:26.079Z</time></trkpt><trkpt lat="40.0300723" lon="8.60271"><ele>19.0</ele><time>2026-04-05T14:35:27.077Z</time></trkpt><trkpt lat="40.0299731" lon="8.6025997"><ele>19.0</ele><time>2026-04-05T14:35:28.079Z</time></trkpt><trkpt lat="40.029878" lon="8.6024922"><ele>19.0</ele><time>2026-04-05T14:35:29.07Z</time></trkpt><trkpt lat="40.029791" lon="8.6023691"><ele>19.0</ele><time>2026-04-05T14:35:30.082Z</time></trkpt><trkpt lat="40.029704" lon="8.6022419"><ele>19.0</ele><time>2026-04-05T14:35:31.077Z</time></trkpt><trkpt lat="40.029622" lon="8.6021172"><ele>19.0</ele><time>2026-04-05T14:35:32.085Z</time></trkpt><trkpt lat="40.0295381" lon="8.6019866"><ele>19.0</ele><time>2026-04-05T14:35:33.072Z</time></trkpt><trkpt lat="40.0294616" lon="8.6018506"><ele>19.0</ele><time>2026-04-05T14:35:34.076Z</time></trkpt><trkpt lat="40.0293891" lon="8.6016953"><ele>19.25</ele><time>2026-04-05T14:35:35.076Z</time></trkpt><trkpt lat="40.0293159" lon="8.6015379"><ele>19.5</ele><time>2026-04-05T14:35:36.089Z</time></trkpt><trkpt lat="40.0292505" lon="8.6013925"><ele>19.75</ele><time>2026-04-05T14:35:37.082Z</time></trkpt><trkpt lat="40.029188" lon="8.6012486"><ele>20.0</ele><time>2026-04-05T14:35:38.079Z</time></trkpt><trkpt lat="40.0291308" lon="8.6011047"><ele>19.5</ele><time>2026-04-05T14:35:39.075Z</time></trkpt><trkpt lat="40.0290783" lon="8.600946"><ele>19.0</ele><time>2026-04-05T14:35:40.078Z</time></trkpt><trkpt lat="40.0290275" lon="8.6007789"><ele>18.5</ele><time>2026-04-05T14:35:41.089Z</time></trkpt><trkpt lat="40.0289747" lon="8.600601"><ele>18.0</ele><time>2026-04-05T14:35:42.086Z</time></trkpt><trkpt lat="40.0289134" lon="8.6004321"><ele>18.0</ele><time>2026-04-05T14:35:43.081Z</time></trkpt><trkpt lat="40.0288413" lon="8.600249"><ele>18.0</ele><time>2026-04-05T14:35:44.071Z</time></trkpt><trkpt lat="40.0287703" lon="8.600071"><ele>18.0</ele><time>2026-04-05T14:35:45.078Z</time></trkpt><trkpt lat="40.0287019" lon="8.5999019"><ele>18.0</ele><time>2026-04-05T14:35:46.076Z</time></trkpt><trkpt lat="40.0286198" lon="8.5997297"><ele>18.0</ele><time>2026-04-05T14:35:47.079Z</time></trkpt><trkpt lat="40.0285391" lon="8.5995633"><ele>18.0</ele><time>2026-04-05T14:35:48.066Z</time></trkpt><trkpt lat="40.0284693" lon="8.5994064"><ele>18.0</ele><time>2026-04-05T14:35:49.074Z</time></trkpt><trkpt lat="40.0284105" lon="8.5992425"><ele>18.0</ele><time>2026-04-05T14:35:50.083Z</time></trkpt><trkpt lat="40.0283603" lon="8.5990932"><ele>18.0</ele><time>2026-04-05T14:35:51.08Z</time></trkpt><trkpt lat="40.0283163" lon="8.598948"><ele>18.0</ele><time>2026-04-05T14:35:52.073Z</time></trkpt><trkpt lat="40.0282697" lon="8.5988068"><ele>18.0</ele><time>2026-04-05T14:35:53.08Z</time></trkpt><trkpt lat="40.0282127" lon="8.5986561"><ele>17.5</ele><time>2026-04-05T14:35:54.08Z</time></trkpt><trkpt lat="40.0281502" lon="8.5985123"><ele>17.0</ele><time>2026-04-05T14:35:55.086Z</time></trkpt><trkpt lat="40.0280868" lon="8.5983757"><ele>16.5</ele><time>2026-04-05T14:35:56.078Z</time></trkpt><trkpt lat="40.0280167" lon="8.5982378"><ele>16.0</ele><time>2026-04-05T14:35:57.086Z</time></trkpt><trkpt lat="40.0279493" lon="8.5981092"><ele>16.0</ele><time>2026-04-05T14:35:58.073Z</time></trkpt><trkpt lat="40.027881" lon="8.5979794"><ele>16.0</ele><time>2026-04-05T14:35:59.089Z</time></trkpt><trkpt lat="40.0278123" lon="8.5978552"><ele>16.0</ele><time>2026-04-05T14:36:00.077Z</time></trkpt><trkpt lat="40.0277351" lon="8.5977301"><ele>16.0</ele><time>2026-04-05T14:36:01.073Z</time></trkpt><trkpt lat="40.0276452" lon="8.5976026"><ele>16.0</ele><time>2026-04-05T14:36:02.076Z</time></trkpt><trkpt lat="40.027551" lon="8.5974705"><ele>16.0</ele><time>2026-04-05T14:36:03.083Z</time></trkpt><trkpt lat="40.0274463" lon="8.5973365"><ele>16.0</ele><time>2026-04-05T14:36:04.078Z</time></trkpt><trkpt lat="40.0273449" lon="8.5971911"><ele>16.0</ele><time>2026-04-05T14:36:05.077Z</time></trkpt><trkpt lat="40.027257" lon="8.5970468"><ele>15.75</ele><time>2026-04-05T14:36:06.075Z</time></trkpt><trkpt lat="40.02717" lon="8.5969189"><ele>15.5</ele><time>2026-04-05T14:36:07.082Z</time></trkpt><trkpt lat="40.0270859" lon="8.5968004"><ele>15.25</ele><time>2026-04-05T14:36:08.076Z</time></trkpt><trkpt lat="40.0270032" lon="8.5966883"><ele>15.0</ele><time>2026-04-05T14:36:09.087Z</time></trkpt><trkpt lat="40.0269239" lon="8.596581"><ele>15.0</ele><time>2026-04-05T14:36:10.08Z</time></trkpt><trkpt lat="40.026841" lon="8.5964674"><ele>15.0</ele><time>2026-04-05T14:36:11.096Z</time></trkpt><trkpt lat="40.0267616" lon="8.5963527"><ele>15.0</ele><time>2026-04-05T14:36:12.082Z</time></trkpt><trkpt lat="40.0266739" lon="8.5962344"><ele>15.0</ele><time>2026-04-05T14:36:13.081Z</time></trkpt><trkpt lat="40.0265902" lon="8.5961211"><ele>15.0</ele><time>2026-04-05T14:36:14.071Z</time></trkpt><trkpt lat="40.0265178" lon="8.5960266"><ele>15.0</ele><time>2026-04-05T14:36:15.087Z</time></trkpt><trkpt lat="40.0264584" lon="8.5959419"><ele>15.0</ele><time>2026-04-05T14:36:16.084Z</time></trkpt><trkpt lat="40.0264124" lon="8.5958769"><ele>15.0</ele><time>2026-04-05T14:36:17.077Z</time></trkpt><trkpt lat="40.0263352" lon="8.5957808"><ele>15.0</ele><time>2026-04-05T14:36:19.079Z</time></trkpt><trkpt lat="40.0262762" lon="8.595706"><ele>15.0</ele><time>2026-04-05T14:36:20.082Z</time></trkpt><trkpt lat="40.0262042" lon="8.5956028"><ele>15.0</ele><time>2026-04-05T14:36:21.081Z</time></trkpt><trkpt lat="40.0261108" lon="8.595489"><ele>15.0</ele><time>2026-04-05T14:36:22.082Z</time></trkpt><trkpt lat="40.0260188" lon="8.5953726"><ele>15.0</ele><time>2026-04-05T14:36:23.087Z</time></trkpt><trkpt lat="40.0259279" lon="8.5952691"><ele>15.0</ele><time>2026-04-05T14:36:24.085Z</time></trkpt><trkpt lat="40.0258267" lon="8.5951711"><ele>14.75</ele><time>2026-04-05T14:36:25.079Z</time></trkpt><trkpt lat="40.0257235" lon="8.5950743"><ele>14.5</ele><time>2026-04-05T14:36:26.08Z</time></trkpt><trkpt lat="40.0256207" lon="8.5949812"><ele>14.25</ele><time>2026-04-05T14:36:27.078Z</time></trkpt><trkpt lat="40.0255228" lon="8.594889"><ele>14.0</ele><time>2026-04-05T14:36:28.083Z</time></trkpt><trkpt lat="40.0254301" lon="8.5948033"><ele>14.0</ele><time>2026-04-05T14:36:29.082Z</time></trkpt><trkpt lat="40.0253407" lon="8.5947241"><ele>13.999999999999998</ele><time>2026-04-05T14:36:30.077Z</time></trkpt><trkpt lat="40.0252579" lon="8.5946535"><ele>13.999999999999998</ele><time>2026-04-05T14:36:31.082Z</time></trkpt><trkpt lat="40.0251644" lon="8.5945888"><ele>14.0</ele><time>2026-04-05T14:36:32.093Z</time></trkpt><trkpt lat="40.0250575" lon="8.5945086"><ele>14.0</ele><time>2026-04-05T14:36:33.078Z</time></trkpt><trkpt lat="40.02494" lon="8.594425"><ele>13.5</ele><time>2026-04-05T14:36:34.085Z</time></trkpt><trkpt lat="40.0248149" lon="8.5943405"><ele>13.0</ele><time>2026-04-05T14:36:35.077Z</time></trkpt><trkpt lat="40.0246849" lon="8.5942601"><ele>12.5</ele><time>2026-04-05T14:36:36.071Z</time></trkpt><trkpt lat="40.0245581" lon="8.5941759"><ele>12.0</ele><time>2026-04-05T14:36:37.077Z</time></trkpt><trkpt lat="40.0244264" lon="8.5940907"><ele>12.0</ele><time>2026-04-05T14:36:38.084Z</time></trkpt><trkpt lat="40.0242905" lon="8.5940089"><ele>12.0</ele><time>2026-04-05T14:36:39.101Z</time></trkpt><trkpt lat="40.0241712" lon="8.593922"><ele>12.0</ele><time>2026-04-05T14:36:40.077Z</time></trkpt><trkpt lat="40.0240416" lon="8.5938429"><ele>12.0</ele><time>2026-04-05T14:36:41.079Z</time></trkpt><trkpt lat="40.0239124" lon="8.5937629"><ele>12.0</ele><time>2026-04-05T14:36:42.084Z</time></trkpt><trkpt lat="40.0237817" lon="8.593684"><ele>12.0</ele><time>2026-04-05T14:36:43.072Z</time></trkpt><trkpt lat="40.0236477" lon="8.5936077"><ele>12.0</ele><time>2026-04-05T14:36:44.076Z</time></trkpt><trkpt lat="40.0235189" lon="8.5935259"><ele>12.0</ele><time>2026-04-05T14:36:45.082Z</time></trkpt><trkpt lat="40.023395" lon="8.5934406"><ele>12.0</ele><time>2026-04-05T14:36:46.094Z</time></trkpt><trkpt lat="40.023269" lon="8.5933454"><ele>12.0</ele><time>2026-04-05T14:36:47.079Z</time></trkpt><trkpt lat="40.0231433" lon="8.5932443"><ele>12.0</ele><time>2026-04-05T14:36:48.088Z</time></trkpt><trkpt lat="40.0230264" lon="8.5931389"><ele>12.0</ele><time>2026-04-05T14:36:49.072Z</time></trkpt><trkpt lat="40.0229085" lon="8.5930254"><ele>12.0</ele><time>2026-04-05T14:36:50.073Z</time></trkpt><trkpt lat="40.0227909" lon="8.5929033"><ele>12.0</ele><time>2026-04-05T14:36:51.078Z</time></trkpt><trkpt lat="40.0226804" lon="8.5927765"><ele>12.0</ele><time>2026-04-05T14:36:52.078Z</time></trkpt><trkpt lat="40.0225698" lon="8.5926477"><ele>12.0</ele><time>2026-04-05T14:36:53.076Z</time></trkpt><trkpt lat="40.0224634" lon="8.5925109"><ele>11.75</ele><time>2026-04-05T14:36:54.089Z</time></trkpt><trkpt lat="40.0223546" lon="8.5923736"><ele>11.5</ele><time>2026-04-05T14:36:55.08Z</time></trkpt><trkpt lat="40.022256" lon="8.5922344"><ele>11.25</ele><time>2026-04-05T14:36:56.079Z</time></trkpt><trkpt lat="40.0221581" lon="8.5920963"><ele>11.0</ele><time>2026-04-05T14:36:57.091Z</time></trkpt><trkpt lat="40.0220631" lon="8.5919626"><ele>11.0</ele><time>2026-04-05T14:36:58.084Z</time></trkpt><trkpt lat="40.0219668" lon="8.5918317"><ele>11.0</ele><time>2026-04-05T14:36:59.075Z</time></trkpt><trkpt lat="40.0218686" lon="8.5917084"><ele>11.0</ele><time>2026-04-05T14:37:00.071Z</time></trkpt><trkpt lat="40.0217703" lon="8.5915939"><ele>11.0</ele><time>2026-04-05T14:37:01.106Z</time></trkpt><trkpt lat="40.0216795" lon="8.5914865"><ele>10.600000000000001</ele><time>2026-04-05T14:37:02.083Z</time></trkpt><trkpt lat="40.0215934" lon="8.5913955"><ele>10.200000000000001</ele><time>2026-04-05T14:37:03.084Z</time></trkpt><trkpt lat="40.0215101" lon="8.5913051"><ele>9.8</ele><time>2026-04-05T14:37:04.08Z</time></trkpt><trkpt lat="40.0214283" lon="8.5912256"><ele>9.4</ele><time>2026-04-05T14:37:05.075Z</time></trkpt><trkpt lat="40.0213456" lon="8.5911446"><ele>9.0</ele><time>2026-04-05T14:37:06.079Z</time></trkpt><trkpt lat="40.0212682" lon="8.5910771"><ele>9.0</ele><time>2026-04-05T14:37:07.084Z</time></trkpt><trkpt lat="40.0211894" lon="8.5910071"><ele>9.0</ele><time>2026-04-05T14:37:08.081Z</time></trkpt><trkpt lat="40.0211126" lon="8.5909281"><ele>9.0</ele><time>2026-04-05T14:37:09.08Z</time></trkpt><trkpt lat="40.0210425" lon="8.5908568"><ele>9.0</ele><time>2026-04-05T14:37:10.08Z</time></trkpt><trkpt lat="40.0209784" lon="8.5907912"><ele>9.0</ele><time>2026-04-05T14:37:11.083Z</time></trkpt><trkpt lat="40.0209237" lon="8.5907342"><ele>9.0</ele><time>2026-04-05T14:37:12.08Z</time></trkpt><trkpt lat="40.0208605" lon="8.590664"><ele>8.8</ele><time>2026-04-05T14:37:14.084Z</time></trkpt><trkpt lat="40.0208007" lon="8.5906276"><ele>8.600000000000001</ele><time>2026-04-05T14:37:23.081Z</time></trkpt><trkpt lat="40.0207101" lon="8.5905515"><ele>8.4</ele><time>2026-04-05T14:37:25.07Z</time></trkpt><trkpt lat="40.0206052" lon="8.5904182"><ele>8.200000000000001</ele><time>2026-04-05T14:37:27.086Z</time></trkpt><trkpt lat="40.0205422" lon="8.5903046"><ele>8.0</ele><time>2026-04-05T14:37:28.087Z</time></trkpt><trkpt lat="40.0204676" lon="8.5901706"><ele>7.666666666666666</ele><time>2026-04-05T14:37:29.075Z</time></trkpt><trkpt lat="40.0203839" lon="8.5900043"><ele>7.333333333333334</ele><time>2026-04-05T14:37:30.077Z</time></trkpt><trkpt lat="40.0202892" lon="8.5898243"><ele>7.0</ele><time>2026-04-05T14:37:31.089Z</time></trkpt><trkpt lat="40.0201876" lon="8.5896402"><ele>7.333333333333334</ele><time>2026-04-05T14:37:32.081Z</time></trkpt><trkpt lat="40.0200853" lon="8.5894525"><ele>7.666666666666666</ele><time>2026-04-05T14:37:33.086Z</time></trkpt><trkpt lat="40.0199819" lon="8.5892719"><ele>8.0</ele><time>2026-04-05T14:37:34.09Z</time></trkpt><trkpt lat="40.0198816" lon="8.5890877"><ele>8.0</ele><time>2026-04-05T14:37:35.087Z</time></trkpt><trkpt lat="40.0197862" lon="8.5889032"><ele>8.0</ele><time>2026-04-05T14:37:36.073Z</time></trkpt><trkpt lat="40.0196909" lon="8.5887148"><ele>8.0</ele><time>2026-04-05T14:37:37.076Z</time></trkpt><trkpt lat="40.0195858" lon="8.5885298"><ele>8.0</ele><time>2026-04-05T14:37:38.076Z</time></trkpt><trkpt lat="40.019483" lon="8.5883441"><ele>8.0</ele><time>2026-04-05T14:37:39.087Z</time></trkpt><trkpt lat="40.0193848" lon="8.5881556"><ele>8.0</ele><time>2026-04-05T14:37:40.082Z</time></trkpt><trkpt lat="40.0192816" lon="8.587964"><ele>8.0</ele><time>2026-04-05T14:37:41.079Z</time></trkpt><trkpt lat="40.0191755" lon="8.5877651"><ele>8.0</ele><time>2026-04-05T14:37:42.081Z</time></trkpt><trkpt lat="40.0190697" lon="8.5875645"><ele>8.0</ele><time>2026-04-05T14:37:43.08Z</time></trkpt><trkpt lat="40.0189623" lon="8.5873616"><ele>8.0</ele><time>2026-04-05T14:37:44.071Z</time></trkpt><trkpt lat="40.0188551" lon="8.5871585"><ele>8.0</ele><time>2026-04-05T14:37:45.09Z</time></trkpt><trkpt lat="40.0187468" lon="8.5869531"><ele>8.0</ele><time>2026-04-05T14:37:46.085Z</time></trkpt><trkpt lat="40.0186359" lon="8.5867496"><ele>8.0</ele><time>2026-04-05T14:37:47.08Z</time></trkpt><trkpt lat="40.0185209" lon="8.5865493"><ele>8.0</ele><time>2026-04-05T14:37:48.074Z</time></trkpt><trkpt lat="40.0184111" lon="8.5863546"><ele>8.0</ele><time>2026-04-05T14:37:49.073Z</time></trkpt><trkpt lat="40.0182988" lon="8.5861536"><ele>8.0</ele><time>2026-04-05T14:37:50.077Z</time></trkpt><trkpt lat="40.0181917" lon="8.5859579"><ele>8.0</ele><time>2026-04-05T14:37:51.081Z</time></trkpt><trkpt lat="40.018103" lon="8.585787"><ele>8.0</ele><time>2026-04-05T14:37:52.08Z</time></trkpt><trkpt lat="40.0180211" lon="8.5856293"><ele>8.0</ele><time>2026-04-05T14:37:53.078Z</time></trkpt><trkpt lat="40.0179414" lon="8.5854829"><ele>8.0</ele><time>2026-04-05T14:37:54.074Z</time></trkpt><trkpt lat="40.0178583" lon="8.5853362"><ele>8.0</ele><time>2026-04-05T14:37:55.082Z</time></trkpt><trkpt lat="40.0177752" lon="8.585174"><ele>8.0</ele><time>2026-04-05T14:37:56.08Z</time></trkpt><trkpt lat="40.0176891" lon="8.585011"><ele>7.666666666666666</ele><time>2026-04-05T14:37:57.075Z</time></trkpt><trkpt lat="40.0175984" lon="8.5848427"><ele>7.333333333333334</ele><time>2026-04-05T14:37:58.072Z</time></trkpt><trkpt lat="40.0175141" lon="8.5846815"><ele>7.0</ele><time>2026-04-05T14:37:59.085Z</time></trkpt><trkpt lat="40.0174352" lon="8.5845265"><ele>6.75</ele><time>2026-04-05T14:38:00.08Z</time></trkpt><trkpt lat="40.0173551" lon="8.5843798"><ele>6.5</ele><time>2026-04-05T14:38:01.086Z</time></trkpt><trkpt lat="40.0172753" lon="8.5842297"><ele>6.25</ele><time>2026-04-05T14:38:02.081Z</time></trkpt><trkpt lat="40.017192" lon="8.584096"><ele>6.0</ele><time>2026-04-05T14:38:03.08Z</time></trkpt><trkpt lat="40.0171118" lon="8.5839837"><ele>6.0</ele><time>2026-04-05T14:38:04.084Z</time></trkpt><trkpt lat="40.0170442" lon="8.5838966"><ele>6.0</ele><time>2026-04-05T14:38:05.08Z</time></trkpt><trkpt lat="40.0169672" lon="8.5838252"><ele>6.0</ele><time>2026-04-05T14:38:06.094Z</time></trkpt><trkpt lat="40.0168885" lon="8.5837631"><ele>6.0</ele><time>2026-04-05T14:38:07.094Z</time></trkpt><trkpt lat="40.0167953" lon="8.5837211"><ele>6.0</ele><time>2026-04-05T14:38:08.073Z</time></trkpt><trkpt lat="40.0166829" lon="8.5836773"><ele>5.8</ele><time>2026-04-05T14:38:09.082Z</time></trkpt><trkpt lat="40.0165685" lon="8.583646"><ele>5.6</ele><time>2026-04-05T14:38:10.085Z</time></trkpt><trkpt lat="40.0164445" lon="8.5836349"><ele>5.4</ele><time>2026-04-05T14:38:11.079Z</time></trkpt><trkpt lat="40.0163365" lon="8.5836314"><ele>5.2</ele><time>2026-04-05T14:38:12.082Z</time></trkpt><trkpt lat="40.0162503" lon="8.5836223"><ele>5.0</ele><time>2026-04-05T14:38:13.089Z</time></trkpt><trkpt lat="40.0161819" lon="8.5836066"><ele>5.0</ele><time>2026-04-05T14:38:14.077Z</time></trkpt><trkpt lat="40.0161224" lon="8.5835655"><ele>5.0</ele><time>2026-04-05T14:38:21.074Z</time></trkpt><trkpt lat="40.0161266" lon="8.5834615"><ele>5.0</ele><time>2026-04-05T14:38:24.087Z</time></trkpt><trkpt lat="40.0161709" lon="8.5833813"><ele>5.0</ele><time>2026-04-05T14:38:25.076Z</time></trkpt><trkpt lat="40.0162383" lon="8.5832959"><ele>5.0</ele><time>2026-04-05T14:38:26.075Z</time></trkpt><trkpt lat="40.0163104" lon="8.5831948"><ele>5.0</ele><time>2026-04-05T14:38:27.087Z</time></trkpt><trkpt lat="40.0163751" lon="8.5830745"><ele>5.0</ele><time>2026-04-05T14:38:28.073Z</time></trkpt><trkpt lat="40.0164329" lon="8.5829378"><ele>5.0</ele><time>2026-04-05T14:38:29.074Z</time></trkpt><trkpt lat="40.0164763" lon="8.5827985"><ele>5.0</ele><time>2026-04-05T14:38:30.09Z</time></trkpt><trkpt lat="40.0165153" lon="8.5826512"><ele>5.0</ele><time>2026-04-05T14:38:31.081Z</time></trkpt><trkpt lat="40.0165437" lon="8.5824945"><ele>5.25</ele><time>2026-04-05T14:38:32.08Z</time></trkpt><trkpt lat="40.0165668" lon="8.5823327"><ele>5.5</ele><time>2026-04-05T14:38:33.08Z</time></trkpt><trkpt lat="40.0165751" lon="8.5821599"><ele>5.75</ele><time>2026-04-05T14:38:34.072Z</time></trkpt><trkpt lat="40.0165797" lon="8.5819821"><ele>6.0</ele><time>2026-04-05T14:38:35.087Z</time></trkpt><trkpt lat="40.0165725" lon="8.5818091"><ele>6.0</ele><time>2026-04-05T14:38:36.1Z</time></trkpt><trkpt lat="40.0165603" lon="8.5816402"><ele>6.0</ele><time>2026-04-05T14:38:37.073Z</time></trkpt><trkpt lat="40.0165494" lon="8.5814761"><ele>6.0</ele><time>2026-04-05T14:38:38.098Z</time></trkpt><trkpt lat="40.0165385" lon="8.5813086"><ele>6.0</ele><time>2026-04-05T14:38:39.078Z</time></trkpt><trkpt lat="40.0165246" lon="8.5811313"><ele>6.0</ele><time>2026-04-05T14:38:40.081Z</time></trkpt><trkpt lat="40.0165122" lon="8.5809574"><ele>6.0</ele><time>2026-04-05T14:38:41.075Z</time></trkpt><trkpt lat="40.0164993" lon="8.5807797"><ele>6.0</ele><time>2026-04-05T14:38:42.087Z</time></trkpt><trkpt lat="40.016491" lon="8.5806011"><ele>6.0</ele><time>2026-04-05T14:38:43.084Z</time></trkpt><trkpt lat="40.0164822" lon="8.5804231"><ele>6.25</ele><time>2026-04-05T14:38:44.093Z</time></trkpt><trkpt lat="40.0164723" lon="8.5802402"><ele>6.5</ele><time>2026-04-05T14:38:45.088Z</time></trkpt><trkpt lat="40.0164629" lon="8.5800529"><ele>6.75</ele><time>2026-04-05T14:38:46.098Z</time></trkpt><trkpt lat="40.0164515" lon="8.5798629"><ele>7.0</ele><time>2026-04-05T14:38:47.091Z</time></trkpt><trkpt lat="40.0164407" lon="8.5796736"><ele>7.0</ele><time>2026-04-05T14:38:48.083Z</time></trkpt><trkpt lat="40.016429" lon="8.579478"><ele>7.0</ele><time>2026-04-05T14:38:49.088Z</time></trkpt><trkpt lat="40.0164154" lon="8.5792803"><ele>7.0</ele><time>2026-04-05T14:38:50.073Z</time></trkpt><trkpt lat="40.0164063" lon="8.5790916"><ele>7.0</ele><time>2026-04-05T14:38:51.08Z</time></trkpt><trkpt lat="40.0163966" lon="8.5789052"><ele>7.0</ele><time>2026-04-05T14:38:52.082Z</time></trkpt><trkpt lat="40.0163888" lon="8.5787119"><ele>7.0</ele><time>2026-04-05T14:38:53.081Z</time></trkpt><trkpt lat="40.0163771" lon="8.5785246"><ele>7.0</ele><time>2026-04-05T14:38:54.079Z</time></trkpt><trkpt lat="40.016365" lon="8.5783408"><ele>7.0</ele><time>2026-04-05T14:38:55.073Z</time></trkpt><trkpt lat="40.0163482" lon="8.5781559"><ele>7.0</ele><time>2026-04-05T14:38:56.087Z</time></trkpt><trkpt lat="40.0163359" lon="8.5779701"><ele>7.0</ele><time>2026-04-05T14:38:57.081Z</time></trkpt><trkpt lat="40.0163244" lon="8.5777805"><ele>7.0</ele><time>2026-04-05T14:38:58.12Z</time></trkpt><trkpt lat="40.0163121" lon="8.5775944"><ele>7.0</ele><time>2026-04-05T14:38:59.078Z</time></trkpt><trkpt lat="40.0163033" lon="8.5774124"><ele>6.5</ele><time>2026-04-05T14:39:00.078Z</time></trkpt><trkpt lat="40.0162905" lon="8.5772278"><ele>6.0</ele><time>2026-04-05T14:39:01.072Z</time></trkpt><trkpt lat="40.0162793" lon="8.5770444"><ele>5.5</ele><time>2026-04-05T14:39:02.081Z</time></trkpt><trkpt lat="40.0162655" lon="8.5768636"><ele>5.0</ele><time>2026-04-05T14:39:03.077Z</time></trkpt><trkpt lat="40.0162558" lon="8.5766805"><ele>5.0</ele><time>2026-04-05T14:39:04.075Z</time></trkpt><trkpt lat="40.0162477" lon="8.5764954"><ele>5.0</ele><time>2026-04-05T14:39:05.076Z</time></trkpt><trkpt lat="40.01624" lon="8.5763113"><ele>5.0</ele><time>2026-04-05T14:39:06.081Z</time></trkpt><trkpt lat="40.0162331" lon="8.5761213"><ele>5.0</ele><time>2026-04-05T14:39:07.091Z</time></trkpt><trkpt lat="40.0162276" lon="8.575926"><ele>5.0</ele><time>2026-04-05T14:39:08.071Z</time></trkpt><trkpt lat="40.0162176" lon="8.5757378"><ele>5.0</ele><time>2026-04-05T14:39:09.077Z</time></trkpt><trkpt lat="40.0162046" lon="8.5755519"><ele>5.0</ele><time>2026-04-05T14:39:10.083Z</time></trkpt><trkpt lat="40.0161896" lon="8.5753614"><ele>5.0</ele><time>2026-04-05T14:39:11.071Z</time></trkpt><trkpt lat="40.0161722" lon="8.5751671"><ele>5.25</ele><time>2026-04-05T14:39:12.101Z</time></trkpt><trkpt lat="40.0161597" lon="8.5749795"><ele>5.5</ele><time>2026-04-05T14:39:13.077Z</time></trkpt><trkpt lat="40.0161485" lon="8.5747929"><ele>5.75</ele><time>2026-04-05T14:39:14.079Z</time></trkpt><trkpt lat="40.0161364" lon="8.5745987"><ele>6.0</ele><time>2026-04-05T14:39:15.077Z</time></trkpt><trkpt lat="40.0161292" lon="8.5744021"><ele>6.333333333333334</ele><time>2026-04-05T14:39:16.078Z</time></trkpt><trkpt lat="40.0161232" lon="8.5742037"><ele>6.666666666666667</ele><time>2026-04-05T14:39:17.08Z</time></trkpt><trkpt lat="40.016111" lon="8.574014"><ele>7.0</ele><time>2026-04-05T14:39:18.077Z</time></trkpt><trkpt lat="40.0161014" lon="8.573814"><ele>6.5</ele><time>2026-04-05T14:39:19.108Z</time></trkpt><trkpt lat="40.0160921" lon="8.5736184"><ele>6.0</ele><time>2026-04-05T14:39:20.075Z</time></trkpt><trkpt lat="40.0160828" lon="8.5734274"><ele>5.5</ele><time>2026-04-05T14:39:21.082Z</time></trkpt><trkpt lat="40.0160732" lon="8.5732298"><ele>5.0</ele><time>2026-04-05T14:39:22.079Z</time></trkpt><trkpt lat="40.0160609" lon="8.5730308"><ele>4.666666666666667</ele><time>2026-04-05T14:39:23.084Z</time></trkpt><trkpt lat="40.016046" lon="8.5728319"><ele>4.333333333333333</ele><time>2026-04-05T14:39:24.085Z</time></trkpt><trkpt lat="40.0160324" lon="8.5726358"><ele>4.0</ele><time>2026-04-05T14:39:25.086Z</time></trkpt><trkpt lat="40.0160216" lon="8.5724361"><ele>4.0</ele><time>2026-04-05T14:39:26.107Z</time></trkpt><trkpt lat="40.0160116" lon="8.5722387"><ele>4.0</ele><time>2026-04-05T14:39:27.079Z</time></trkpt><trkpt lat="40.0160001" lon="8.5720389"><ele>4.0</ele><time>2026-04-05T14:39:28.088Z</time></trkpt><trkpt lat="40.0159894" lon="8.5718382"><ele>4.0</ele><time>2026-04-05T14:39:29.087Z</time></trkpt><trkpt lat="40.0159727" lon="8.5716345"><ele>4.0</ele><time>2026-04-05T14:39:30.071Z</time></trkpt><trkpt lat="40.0159527" lon="8.5714332"><ele>4.0</ele><time>2026-04-05T14:39:31.095Z</time></trkpt><trkpt lat="40.0159281" lon="8.5712392"><ele>4.0</ele><time>2026-04-05T14:39:32.07Z</time></trkpt><trkpt lat="40.0158905" lon="8.5710456"><ele>4.0</ele><time>2026-04-05T14:39:33.091Z</time></trkpt><trkpt lat="40.0158483" lon="8.5708659"><ele>4.0</ele><time>2026-04-05T14:39:34.096Z</time></trkpt><trkpt lat="40.0158073" lon="8.5707059"><ele>4.0</ele><time>2026-04-05T14:39:35.068Z</time></trkpt><trkpt lat="40.0157693" lon="8.5705476"><ele>4.0</ele><time>2026-04-05T14:39:36.086Z</time></trkpt><trkpt lat="40.0157288" lon="8.5703953"><ele>4.0</ele><time>2026-04-05T14:39:37.076Z</time></trkpt><trkpt lat="40.0156895" lon="8.5702422"><ele>4.0</ele><time>2026-04-05T14:39:38.078Z</time></trkpt><trkpt lat="40.0156525" lon="8.5700874"><ele>4.0</ele><time>2026-04-05T14:39:39.08Z</time></trkpt><trkpt lat="40.0156116" lon="8.5699342"><ele>4.0</ele><time>2026-04-05T14:39:40.092Z</time></trkpt><trkpt lat="40.0155717" lon="8.5697766"><ele>4.0</ele><time>2026-04-05T14:39:41.075Z</time></trkpt><trkpt lat="40.0155265" lon="8.5696116"><ele>4.0</ele><time>2026-04-05T14:39:42.074Z</time></trkpt><trkpt lat="40.0154764" lon="8.5694419"><ele>4.0</ele><time>2026-04-05T14:39:43.077Z</time></trkpt><trkpt lat="40.015427" lon="8.5692725"><ele>4.0</ele><time>2026-04-05T14:39:44.073Z</time></trkpt><trkpt lat="40.0153893" lon="8.569105"><ele>4.0</ele><time>2026-04-05T14:39:45.072Z</time></trkpt><trkpt lat="40.0153482" lon="8.568939"><ele>4.0</ele><time>2026-04-05T14:39:46.084Z</time></trkpt><trkpt lat="40.0153054" lon="8.5687661"><ele>4.0</ele><time>2026-04-05T14:39:47.077Z</time></trkpt><trkpt lat="40.0152597" lon="8.5685957"><ele>3.75</ele><time>2026-04-05T14:39:48.112Z</time></trkpt><trkpt lat="40.0152163" lon="8.5684273"><ele>3.5</ele><time>2026-04-05T14:39:49.086Z</time></trkpt><trkpt lat="40.0151739" lon="8.5682588"><ele>3.25</ele><time>2026-04-05T14:39:50.085Z</time></trkpt><trkpt lat="40.0151277" lon="8.5680886"><ele>3.0</ele><time>2026-04-05T14:39:51.073Z</time></trkpt><trkpt lat="40.0150792" lon="8.567918"><ele>3.0</ele><time>2026-04-05T14:39:52.079Z</time></trkpt><trkpt lat="40.0150315" lon="8.5677495"><ele>3.0</ele><time>2026-04-05T14:39:53.08Z</time></trkpt><trkpt lat="40.0149891" lon="8.5675847"><ele>3.0</ele><time>2026-04-05T14:39:54.094Z</time></trkpt><trkpt lat="40.0149633" lon="8.5674293"><ele>3.0</ele><time>2026-04-05T14:39:55.08Z</time></trkpt><trkpt lat="40.0149445" lon="8.5672623"><ele>3.0</ele><time>2026-04-05T14:39:56.078Z</time></trkpt><trkpt lat="40.0149334" lon="8.567097"><ele>3.0</ele><time>2026-04-05T14:39:57.079Z</time></trkpt><trkpt lat="40.0149329" lon="8.5669366"><ele>3.0</ele><time>2026-04-05T14:39:58.079Z</time></trkpt><trkpt lat="40.0149437" lon="8.5667842"><ele>3.0</ele><time>2026-04-05T14:39:59.072Z</time></trkpt><trkpt lat="40.0149569" lon="8.5666437"><ele>3.2</ele><time>2026-04-05T14:40:00.082Z</time></trkpt><trkpt lat="40.0149815" lon="8.5665106"><ele>3.4</ele><time>2026-04-05T14:40:01.085Z</time></trkpt><trkpt lat="40.0150048" lon="8.5663834"><ele>3.6000000000000005</ele><time>2026-04-05T14:40:02.081Z</time></trkpt><trkpt lat="40.0150346" lon="8.566253"><ele>3.8000000000000003</ele><time>2026-04-05T14:40:03.076Z</time></trkpt><trkpt lat="40.0150506" lon="8.5661001"><ele>4.0</ele><time>2026-04-05T14:40:04.084Z</time></trkpt><trkpt lat="40.0150434" lon="8.5659372"><ele>4.0</ele><time>2026-04-05T14:40:05.07Z</time></trkpt><trkpt lat="40.0150195" lon="8.565782"><ele>4.0</ele><time>2026-04-05T14:40:06.081Z</time></trkpt><trkpt lat="40.0149795" lon="8.5656274"><ele>4.0</ele><time>2026-04-05T14:40:07.082Z</time></trkpt><trkpt lat="40.0149332" lon="8.5654822"><ele>4.0</ele><time>2026-04-05T14:40:08.08Z</time></trkpt><trkpt lat="40.0148879" lon="8.5653374"><ele>4.0</ele><time>2026-04-05T14:40:09.073Z</time></trkpt><trkpt lat="40.0148406" lon="8.5651911"><ele>4.0</ele><time>2026-04-05T14:40:10.086Z</time></trkpt><trkpt lat="40.0147913" lon="8.5650447"><ele>4.0</ele><time>2026-04-05T14:40:11.087Z</time></trkpt><trkpt lat="40.0147457" lon="8.5648922"><ele>4.0</ele><time>2026-04-05T14:40:12.075Z</time></trkpt><trkpt lat="40.0146942" lon="8.5647371"><ele>4.0</ele><time>2026-04-05T14:40:13.077Z</time></trkpt><trkpt lat="40.0146403" lon="8.5645757"><ele>4.0</ele><time>2026-04-05T14:40:14.072Z</time></trkpt><trkpt lat="40.0145881" lon="8.5644158"><ele>4.0</ele><time>2026-04-05T14:40:15.083Z</time></trkpt><trkpt lat="40.0145361" lon="8.5642568"><ele>4.0</ele><time>2026-04-05T14:40:16.077Z</time></trkpt><trkpt lat="40.0144846" lon="8.5641008"><ele>3.75</ele><time>2026-04-05T14:40:17.078Z</time></trkpt><trkpt lat="40.0144356" lon="8.5639501"><ele>3.5</ele><time>2026-04-05T14:40:18.087Z</time></trkpt><trkpt lat="40.0143877" lon="8.5638009"><ele>3.25</ele><time>2026-04-05T14:40:19.084Z</time></trkpt><trkpt lat="40.014341" lon="8.56366"><ele>3.0</ele><time>2026-04-05T14:40:20.067Z</time></trkpt><trkpt lat="40.014295" lon="8.5635357"><ele>3.0</ele><time>2026-04-05T14:40:21.077Z</time></trkpt><trkpt lat="40.0142475" lon="8.5634287"><ele>3.0</ele><time>2026-04-05T14:40:22.078Z</time></trkpt><trkpt lat="40.0141795" lon="8.563342"><ele>3.0</ele><time>2026-04-05T14:40:23.086Z</time></trkpt><trkpt lat="40.014076" lon="8.5632487"><ele>3.0</ele><time>2026-04-05T14:40:24.073Z</time></trkpt><trkpt lat="40.0139528" lon="8.5631312"><ele>3.0</ele><time>2026-04-05T14:40:25.076Z</time></trkpt><trkpt lat="40.0138099" lon="8.5630031"><ele>3.0</ele><time>2026-04-05T14:40:26.082Z</time></trkpt><trkpt lat="40.0136502" lon="8.5628778"><ele>3.0</ele><time>2026-04-05T14:40:27.078Z</time></trkpt><trkpt lat="40.0134938" lon="8.5627538"><ele>3.0</ele><time>2026-04-05T14:40:28.078Z</time></trkpt><trkpt lat="40.0133377" lon="8.5626307"><ele>3.0</ele><time>2026-04-05T14:40:29.079Z</time></trkpt><trkpt lat="40.0131868" lon="8.5625086"><ele>3.0</ele><time>2026-04-05T14:40:30.075Z</time></trkpt><trkpt lat="40.0130324" lon="8.5623826"><ele>3.0</ele><time>2026-04-05T14:40:31.072Z</time></trkpt><trkpt lat="40.0128745" lon="8.5622607"><ele>3.0</ele><time>2026-04-05T14:40:32.072Z</time></trkpt><trkpt lat="40.0127141" lon="8.562132"><ele>3.0</ele><time>2026-04-05T14:40:33.068Z</time></trkpt><trkpt lat="40.0125571" lon="8.5619924"><ele>2.6666666666666665</ele><time>2026-04-05T14:40:34.069Z</time></trkpt><trkpt lat="40.0124003" lon="8.5618456"><ele>2.333333333333333</ele><time>2026-04-05T14:40:35.075Z</time></trkpt><trkpt lat="40.0122352" lon="8.5616871"><ele>2.0</ele><time>2026-04-05T14:40:36.072Z</time></trkpt><trkpt lat="40.0120671" lon="8.5615129"><ele>2.0</ele><time>2026-04-05T14:40:37.078Z</time></trkpt><trkpt lat="40.0118981" lon="8.5613425"><ele>2.0</ele><time>2026-04-05T14:40:38.08Z</time></trkpt><trkpt lat="40.0117368" lon="8.5611808"><ele>2.0</ele><time>2026-04-05T14:40:39.09Z</time></trkpt><trkpt lat="40.0115925" lon="8.5610221"><ele>1.6666666666666665</ele><time>2026-04-05T14:40:40.085Z</time></trkpt><trkpt lat="40.011446" lon="8.5608687"><ele>1.3333333333333333</ele><time>2026-04-05T14:40:41.075Z</time></trkpt><trkpt lat="40.0113121" lon="8.5607218"><ele>1.0</ele><time>2026-04-05T14:40:42.071Z</time></trkpt><trkpt lat="40.0111846" lon="8.5605965"><ele>1.0</ele><time>2026-04-05T14:40:43.082Z</time></trkpt><trkpt lat="40.0110656" lon="8.560486"><ele>1.0</ele><time>2026-04-05T14:40:44.082Z</time></trkpt><trkpt lat="40.010942" lon="8.5603844"><ele>1.0</ele><time>2026-04-05T14:40:45.074Z</time></trkpt><trkpt lat="40.0108424" lon="8.5602847"><ele>1.0</ele><time>2026-04-05T14:40:46.078Z</time></trkpt><trkpt lat="40.0107566" lon="8.5602014"><ele>1.0</ele><time>2026-04-05T14:40:47.078Z</time></trkpt><trkpt lat="40.0106792" lon="8.5601232"><ele>1.0</ele><time>2026-04-05T14:40:48.075Z</time></trkpt><trkpt lat="40.0106048" lon="8.5600502"><ele>1.0</ele><time>2026-04-05T14:40:49.07Z</time></trkpt><trkpt lat="40.0105351" lon="8.5599737"><ele>1.0</ele><time>2026-04-05T14:40:50.084Z</time></trkpt><trkpt lat="40.0104656" lon="8.5598831"><ele>1.0</ele><time>2026-04-05T14:40:51.077Z</time></trkpt><trkpt lat="40.0103916" lon="8.5597781"><ele>1.0</ele><time>2026-04-05T14:40:52.088Z</time></trkpt><trkpt lat="40.0103154" lon="8.5596765"><ele>1.0</ele><time>2026-04-05T14:40:53.09Z</time></trkpt><trkpt lat="40.0102406" lon="8.5595785"><ele>1.0</ele><time>2026-04-05T14:40:54.094Z</time></trkpt><trkpt lat="40.0101732" lon="8.5594727"><ele>1.0</ele><time>2026-04-05T14:40:55.077Z</time></trkpt><trkpt lat="40.010108" lon="8.5593606"><ele>1.0</ele><time>2026-04-05T14:40:56.078Z</time></trkpt><trkpt lat="40.0100415" lon="8.5592427"><ele>1.4</ele><time>2026-04-05T14:40:57.078Z</time></trkpt><trkpt lat="40.0099731" lon="8.5591387"><ele>1.8</ele><time>2026-04-05T14:40:58.077Z</time></trkpt><trkpt lat="40.0099164" lon="8.559044"><ele>2.1999999999999997</ele><time>2026-04-05T14:40:59.089Z</time></trkpt><trkpt lat="40.0098603" lon="8.5589337"><ele>2.6</ele><time>2026-04-05T14:41:00.081Z</time></trkpt><trkpt lat="40.0098012" lon="8.5588076"><ele>3.0</ele><time>2026-04-05T14:41:01.082Z</time></trkpt><trkpt lat="40.0097526" lon="8.5586748"><ele>3.5</ele><time>2026-04-05T14:41:02.094Z</time></trkpt><trkpt lat="40.0096995" lon="8.5585496"><ele>4.0</ele><time>2026-04-05T14:41:03.084Z</time></trkpt><trkpt lat="40.0096451" lon="8.5583996"><ele>4.5</ele><time>2026-04-05T14:41:04.08Z</time></trkpt><trkpt lat="40.0095966" lon="8.5582495"><ele>5.0</ele><time>2026-04-05T14:41:05.079Z</time></trkpt><trkpt lat="40.0095527" lon="8.5580976"><ele>5.0</ele><time>2026-04-05T14:41:06.087Z</time></trkpt><trkpt lat="40.0095109" lon="8.5579636"><ele>5.0</ele><time>2026-04-05T14:41:07.083Z</time></trkpt><trkpt lat="40.0094702" lon="8.5578334"><ele>5.0</ele><time>2026-04-05T14:41:08.07Z</time></trkpt><trkpt lat="40.0094347" lon="8.5577053"><ele>5.0</ele><time>2026-04-05T14:41:09.08Z</time></trkpt><trkpt lat="40.0094037" lon="8.5575936"><ele>5.0</ele><time>2026-04-05T14:41:10.083Z</time></trkpt><trkpt lat="40.0093668" lon="8.5574968"><ele>5.0</ele><time>2026-04-05T14:41:11.084Z</time></trkpt><trkpt lat="40.009326" lon="8.557395"><ele>5.0</ele><time>2026-04-05T14:41:12.084Z</time></trkpt><trkpt lat="40.0092765" lon="8.5572913"><ele>5.0</ele><time>2026-04-05T14:41:13.083Z</time></trkpt><trkpt lat="40.0092211" lon="8.5571797"><ele>5.0</ele><time>2026-04-05T14:41:14.079Z</time></trkpt><trkpt lat="40.0091676" lon="8.5570629"><ele>5.0</ele><time>2026-04-05T14:41:15.078Z</time></trkpt><trkpt lat="40.0091134" lon="8.5569385"><ele>5.25</ele><time>2026-04-05T14:41:16.075Z</time></trkpt><trkpt lat="40.0090586" lon="8.5568005"><ele>5.5</ele><time>2026-04-05T14:41:17.067Z</time></trkpt><trkpt lat="40.009008" lon="8.5566629"><ele>5.75</ele><time>2026-04-05T14:41:18.074Z</time></trkpt><trkpt lat="40.0089571" lon="8.556516"><ele>6.0</ele><time>2026-04-05T14:41:19.074Z</time></trkpt><trkpt lat="40.0089054" lon="8.5563811"><ele>6.0</ele><time>2026-04-05T14:41:20.069Z</time></trkpt><trkpt lat="40.0088544" lon="8.5562395"><ele>6.0</ele><time>2026-04-05T14:41:21.078Z</time></trkpt><trkpt lat="40.0088075" lon="8.5560917"><ele>6.0</ele><time>2026-04-05T14:41:22.073Z</time></trkpt><trkpt lat="40.008756" lon="8.5559474"><ele>6.0</ele><time>2026-04-05T14:41:23.085Z</time></trkpt><trkpt lat="40.0087058" lon="8.5558168"><ele>6.0</ele><time>2026-04-05T14:41:24.087Z</time></trkpt><trkpt lat="40.0086585" lon="8.5556945"><ele>6.0</ele><time>2026-04-05T14:41:25.084Z</time></trkpt><trkpt lat="40.0086148" lon="8.5555714"><ele>6.0</ele><time>2026-04-05T14:41:26.074Z</time></trkpt><trkpt lat="40.0085736" lon="8.5554429"><ele>6.0</ele><time>2026-04-05T14:41:27.093Z</time></trkpt><trkpt lat="40.0085376" lon="8.5553185"><ele>6.0</ele><time>2026-04-05T14:41:28.073Z</time></trkpt><trkpt lat="40.0085" lon="8.555205"><ele>6.199999999999999</ele><time>2026-04-05T14:41:29.083Z</time></trkpt><trkpt lat="40.0084619" lon="8.5550806"><ele>6.3999999999999995</ele><time>2026-04-05T14:41:30.071Z</time></trkpt><trkpt lat="40.0084289" lon="8.5549554"><ele>6.6</ele><time>2026-04-05T14:41:31.075Z</time></trkpt><trkpt lat="40.0084037" lon="8.554828"><ele>6.8</ele><time>2026-04-05T14:41:32.077Z</time></trkpt><trkpt lat="40.0083779" lon="8.5547015"><ele>7.0</ele><time>2026-04-05T14:41:33.081Z</time></trkpt><trkpt lat="40.0083562" lon="8.5545836"><ele>7.199999999999999</ele><time>2026-04-05T14:41:34.082Z</time></trkpt><trkpt lat="40.0083441" lon="8.5544673"><ele>7.3999999999999995</ele><time>2026-04-05T14:41:35.087Z</time></trkpt><trkpt lat="40.0083358" lon="8.5543329"><ele>7.6000000000000005</ele><time>2026-04-05T14:41:36.072Z</time></trkpt><trkpt lat="40.0083254" lon="8.5541821"><ele>7.800000000000001</ele><time>2026-04-05T14:41:37.081Z</time></trkpt><trkpt lat="40.008318" lon="8.5540504"><ele>8.0</ele><time>2026-04-05T14:41:38.077Z</time></trkpt><trkpt lat="40.0083104" lon="8.5539079"><ele>8.200000000000001</ele><time>2026-04-05T14:41:39.08Z</time></trkpt><trkpt lat="40.0083116" lon="8.5537685"><ele>8.4</ele><time>2026-04-05T14:41:40.077Z</time></trkpt><trkpt lat="40.008308" lon="8.5536285"><ele>8.600000000000001</ele><time>2026-04-05T14:41:41.09Z</time></trkpt><trkpt lat="40.0082993" lon="8.5535029"><ele>8.8</ele><time>2026-04-05T14:41:42.069Z</time></trkpt><trkpt lat="40.0082958" lon="8.5533876"><ele>9.0</ele><time>2026-04-05T14:41:43.082Z</time></trkpt><trkpt lat="40.0082928" lon="8.5532808"><ele>9.0</ele><time>2026-04-05T14:41:44.08Z</time></trkpt><trkpt lat="40.0082921" lon="8.5531786"><ele>9.0</ele><time>2026-04-05T14:41:45.085Z</time></trkpt><trkpt lat="40.0082954" lon="8.5530654"><ele>9.0</ele><time>2026-04-05T14:41:46.086Z</time></trkpt><trkpt lat="40.0082953" lon="8.5529346"><ele>9.0</ele><time>2026-04-05T14:41:47.078Z</time></trkpt><trkpt lat="40.0082991" lon="8.5528062"><ele>9.0</ele><time>2026-04-05T14:41:48.076Z</time></trkpt><trkpt lat="40.0083081" lon="8.5526772"><ele>8.6</ele><time>2026-04-05T14:41:49.079Z</time></trkpt><trkpt lat="40.0083191" lon="8.5525577"><ele>8.2</ele><time>2026-04-05T14:41:50.08Z</time></trkpt><trkpt lat="40.0083241" lon="8.5524408"><ele>7.799999999999999</ele><time>2026-04-05T14:41:51.083Z</time></trkpt><trkpt lat="40.0083239" lon="8.5523135"><ele>7.3999999999999995</ele><time>2026-04-05T14:41:52.074Z</time></trkpt><trkpt lat="40.0083165" lon="8.5521835"><ele>7.0</ele><time>2026-04-05T14:41:53.079Z</time></trkpt><trkpt lat="40.0083043" lon="8.5520469"><ele>7.0</ele><time>2026-04-05T14:41:54.101Z</time></trkpt><trkpt lat="40.0082871" lon="8.551911"><ele>6.999999999999999</ele><time>2026-04-05T14:41:55.087Z</time></trkpt><trkpt lat="40.0082756" lon="8.5517877"><ele>6.999999999999999</ele><time>2026-04-05T14:41:56.088Z</time></trkpt><trkpt lat="40.0082755" lon="8.5516636"><ele>7.0</ele><time>2026-04-05T14:41:57.083Z</time></trkpt><trkpt lat="40.0082642" lon="8.5515431"><ele>7.0</ele><time>2026-04-05T14:41:58.086Z</time></trkpt><trkpt lat="40.0082514" lon="8.5514149"><ele>7.0</ele><time>2026-04-05T14:41:59.079Z</time></trkpt><trkpt lat="40.008226" lon="8.5512782"><ele>6.999999999999999</ele><time>2026-04-05T14:42:00.074Z</time></trkpt><trkpt lat="40.0081999" lon="8.551147"><ele>6.999999999999999</ele><time>2026-04-05T14:42:01.083Z</time></trkpt><trkpt lat="40.008184" lon="8.5510315"><ele>7.0</ele><time>2026-04-05T14:42:02.075Z</time></trkpt><trkpt lat="40.0081678" lon="8.5509273"><ele>7.0</ele><time>2026-04-05T14:42:03.07Z</time></trkpt><trkpt lat="40.0081511" lon="8.5508226"><ele>7.0</ele><time>2026-04-05T14:42:04.077Z</time></trkpt><trkpt lat="40.0081394" lon="8.5507142"><ele>6.999999999999999</ele><time>2026-04-05T14:42:05.077Z</time></trkpt><trkpt lat="40.0081227" lon="8.5505943"><ele>6.999999999999999</ele><time>2026-04-05T14:42:06.086Z</time></trkpt><trkpt lat="40.0081042" lon="8.5504743"><ele>7.0</ele><time>2026-04-05T14:42:07.074Z</time></trkpt><trkpt lat="40.0080891" lon="8.5503524"><ele>7.0</ele><time>2026-04-05T14:42:08.075Z</time></trkpt><trkpt lat="40.0080771" lon="8.5502389"><ele>6.75</ele><time>2026-04-05T14:42:09.075Z</time></trkpt><trkpt lat="40.0080688" lon="8.5501056"><ele>6.5</ele><time>2026-04-05T14:42:10.083Z</time></trkpt><trkpt lat="40.0080702" lon="8.5499565"><ele>6.25</ele><time>2026-04-05T14:42:11.077Z</time></trkpt><trkpt lat="40.0080714" lon="8.5497991"><ele>6.0</ele><time>2026-04-05T14:42:12.076Z</time></trkpt><trkpt lat="40.0080773" lon="8.5496411"><ele>6.0</ele><time>2026-04-05T14:42:13.081Z</time></trkpt><trkpt lat="40.0080796" lon="8.5494759"><ele>6.0</ele><time>2026-04-05T14:42:14.075Z</time></trkpt><trkpt lat="40.0080805" lon="8.5493211"><ele>6.0</ele><time>2026-04-05T14:42:15.076Z</time></trkpt><trkpt lat="40.0080789" lon="8.5491781"><ele>6.0</ele><time>2026-04-05T14:42:16.078Z</time></trkpt><trkpt lat="40.0080719" lon="8.5490353"><ele>6.0</ele><time>2026-04-05T14:42:17.071Z</time></trkpt><trkpt lat="40.0080711" lon="8.548902"><ele>6.0</ele><time>2026-04-05T14:42:18.071Z</time></trkpt><trkpt lat="40.0080656" lon="8.5487723"><ele>6.0</ele><time>2026-04-05T14:42:19.067Z</time></trkpt><trkpt lat="40.0080668" lon="8.5486559"><ele>6.0</ele><time>2026-04-05T14:42:20.082Z</time></trkpt><trkpt lat="40.0080703" lon="8.5485447"><ele>6.0</ele><time>2026-04-05T14:42:21.083Z</time></trkpt><trkpt lat="40.0080755" lon="8.5484377"><ele>6.0</ele><time>2026-04-05T14:42:22.073Z</time></trkpt><trkpt lat="40.0080647" lon="8.5483182"><ele>6.0</ele><time>2026-04-05T14:42:23.083Z</time></trkpt><trkpt lat="40.0080509" lon="8.5481739"><ele>6.0</ele><time>2026-04-05T14:42:24.073Z</time></trkpt><trkpt lat="40.0080332" lon="8.5480174"><ele>6.0</ele><time>2026-04-05T14:42:25.07Z</time></trkpt><trkpt lat="40.008015" lon="8.5478724"><ele>6.0</ele><time>2026-04-05T14:42:26.082Z</time></trkpt><trkpt lat="40.0079947" lon="8.547738"><ele>5.25</ele><time>2026-04-05T14:42:27.074Z</time></trkpt><trkpt lat="40.0079535" lon="8.547603"><ele>4.5</ele><time>2026-04-05T14:42:28.084Z</time></trkpt><trkpt lat="40.007895" lon="8.5474634"><ele>3.75</ele><time>2026-04-05T14:42:29.08Z</time></trkpt><trkpt lat="40.0078279" lon="8.5473339"><ele>3.0</ele><time>2026-04-05T14:42:30.069Z</time></trkpt><trkpt lat="40.007769" lon="8.5472065"><ele>3.0</ele><time>2026-04-05T14:42:31.103Z</time></trkpt><trkpt lat="40.0077277" lon="8.5470547"><ele>3.0</ele><time>2026-04-05T14:42:32.086Z</time></trkpt><trkpt lat="40.0076852" lon="8.5468718"><ele>3.0</ele><time>2026-04-05T14:42:33.078Z</time></trkpt><trkpt lat="40.0076465" lon="8.5466705"><ele>3.0</ele><time>2026-04-05T14:42:34.077Z</time></trkpt><trkpt lat="40.0076072" lon="8.5464787"><ele>3.333333333333333</ele><time>2026-04-05T14:42:35.082Z</time></trkpt><trkpt lat="40.007564" lon="8.5463036"><ele>3.6666666666666665</ele><time>2026-04-05T14:42:36.074Z</time></trkpt><trkpt lat="40.0075021" lon="8.5461207"><ele>4.0</ele><time>2026-04-05T14:42:37.078Z</time></trkpt><trkpt lat="40.0074236" lon="8.5459347"><ele>4.0</ele><time>2026-04-05T14:42:38.081Z</time></trkpt><trkpt lat="40.0073467" lon="8.5457681"><ele>4.0</ele><time>2026-04-05T14:42:39.082Z</time></trkpt><trkpt lat="40.0072764" lon="8.5455965"><ele>4.0</ele><time>2026-04-05T14:42:40.075Z</time></trkpt><trkpt lat="40.0072114" lon="8.5454339"><ele>4.0</ele><time>2026-04-05T14:42:41.075Z</time></trkpt><trkpt lat="40.0071568" lon="8.5452538"><ele>4.0</ele><time>2026-04-05T14:42:42.079Z</time></trkpt><trkpt lat="40.0070915" lon="8.5450347"><ele>4.0</ele><time>2026-04-05T14:42:43.077Z</time></trkpt><trkpt lat="40.0070302" lon="8.5448029"><ele>4.0</ele><time>2026-04-05T14:42:44.073Z</time></trkpt><trkpt lat="40.006975" lon="8.5445798"><ele>4.0</ele><time>2026-04-05T14:42:45.072Z</time></trkpt><trkpt lat="40.0069177" lon="8.544361"><ele>4.0</ele><time>2026-04-05T14:42:46.087Z</time></trkpt><trkpt lat="40.0068668" lon="8.5441574"><ele>4.0</ele><time>2026-04-05T14:42:47.067Z</time></trkpt><trkpt lat="40.0068186" lon="8.5439629"><ele>4.0</ele><time>2026-04-05T14:42:48.067Z</time></trkpt><trkpt lat="40.0067707" lon="8.5437771"><ele>4.0</ele><time>2026-04-05T14:42:49.079Z</time></trkpt><trkpt lat="40.0067254" lon="8.5435892"><ele>4.0</ele><time>2026-04-05T14:42:50.073Z</time></trkpt><trkpt lat="40.0066746" lon="8.5434076"><ele>4.0</ele><time>2026-04-05T14:42:51.098Z</time></trkpt><trkpt lat="40.0066212" lon="8.5432251"><ele>3.6666666666666665</ele><time>2026-04-05T14:42:52.076Z</time></trkpt><trkpt lat="40.0065664" lon="8.5430377"><ele>3.333333333333333</ele><time>2026-04-05T14:42:53.085Z</time></trkpt><trkpt lat="40.0065178" lon="8.5428474"><ele>3.0</ele><time>2026-04-05T14:42:54.068Z</time></trkpt><trkpt lat="40.0064748" lon="8.5426677"><ele>3.0</ele><time>2026-04-05T14:42:55.074Z</time></trkpt><trkpt lat="40.0064194" lon="8.5424859"><ele>3.0</ele><time>2026-04-05T14:42:56.065Z</time></trkpt><trkpt lat="40.006355" lon="8.5423077"><ele>3.0</ele><time>2026-04-05T14:42:57.071Z</time></trkpt><trkpt lat="40.0062825" lon="8.5421423"><ele>3.0</ele><time>2026-04-05T14:42:58.076Z</time></trkpt><trkpt lat="40.0062065" lon="8.5419824"><ele>3.0</ele><time>2026-04-05T14:42:59.074Z</time></trkpt><trkpt lat="40.0061331" lon="8.5418195"><ele>3.0</ele><time>2026-04-05T14:43:00.067Z</time></trkpt><trkpt lat="40.0060655" lon="8.5416654"><ele>3.0</ele><time>2026-04-05T14:43:01.075Z</time></trkpt><trkpt lat="40.0060009" lon="8.541518"><ele>3.0</ele><time>2026-04-05T14:43:02.12Z</time></trkpt><trkpt lat="40.0059355" lon="8.5413767"><ele>3.0</ele><time>2026-04-05T14:43:03.086Z</time></trkpt><trkpt lat="40.0058686" lon="8.5412292"><ele>3.0</ele><time>2026-04-05T14:43:04.085Z</time></trkpt><trkpt lat="40.0057912" lon="8.5410812"><ele>3.0</ele><time>2026-04-05T14:43:05.07Z</time></trkpt><trkpt lat="40.0057084" lon="8.54094"><ele>3.0</ele><time>2026-04-05T14:43:06.079Z</time></trkpt><trkpt lat="40.0056274" lon="8.5407949"><ele>2.6666666666666665</ele><time>2026-04-05T14:43:07.077Z</time></trkpt><trkpt lat="40.0055472" lon="8.5406464"><ele>2.333333333333333</ele><time>2026-04-05T14:43:08.081Z</time></trkpt><trkpt lat="40.0054648" lon="8.5404694"><ele>2.0</ele><time>2026-04-05T14:43:09.073Z</time></trkpt><trkpt lat="40.0053814" lon="8.5402699"><ele>2.0</ele><time>2026-04-05T14:43:10.078Z</time></trkpt><trkpt lat="40.0052993" lon="8.5400597"><ele>2.0</ele><time>2026-04-05T14:43:11.091Z</time></trkpt><trkpt lat="40.0052151" lon="8.5398286"><ele>2.0</ele><time>2026-04-05T14:43:12.068Z</time></trkpt><trkpt lat="40.0051322" lon="8.5395856"><ele>1.6666666666666665</ele><time>2026-04-05T14:43:13.075Z</time></trkpt><trkpt lat="40.0050595" lon="8.5393558"><ele>1.3333333333333333</ele><time>2026-04-05T14:43:14.08Z</time></trkpt><trkpt lat="40.0049996" lon="8.5391494"><ele>1.0</ele><time>2026-04-05T14:43:15.073Z</time></trkpt><trkpt lat="40.004947" lon="8.5389545"><ele>1.0</ele><time>2026-04-05T14:43:16.082Z</time></trkpt><trkpt lat="40.0048933" lon="8.5387848"><ele>1.0</ele><time>2026-04-05T14:43:17.078Z</time></trkpt><trkpt lat="40.0048497" lon="8.5386311"><ele>1.0</ele><time>2026-04-05T14:43:18.082Z</time></trkpt><trkpt lat="40.0048059" lon="8.5384931"><ele>1.0</ele><time>2026-04-05T14:43:19.08Z</time></trkpt><trkpt lat="40.0047709" lon="8.5383672"><ele>0.9999999999999999</ele><time>2026-04-05T14:43:20.079Z</time></trkpt><trkpt lat="40.0047589" lon="8.5382582"><ele>1.0</ele><time>2026-04-05T14:43:21.077Z</time></trkpt><trkpt lat="40.0047588" lon="8.5381555"><ele>1.0</ele><time>2026-04-05T14:43:22.074Z</time></trkpt><trkpt lat="40.0047892" lon="8.5380276"><ele>1.0</ele><time>2026-04-05T14:43:24.074Z</time></trkpt><trkpt lat="40.0047772" lon="8.5379028"><ele>0.9999999999999999</ele><time>2026-04-05T14:43:34.085Z</time></trkpt><trkpt lat="40.0047387" lon="8.5378285"><ele>1.0</ele><time>2026-04-05T14:43:35.076Z</time></trkpt><trkpt lat="40.0046828" lon="8.5377537"><ele>1.2000000000000002</ele><time>2026-04-05T14:43:36.071Z</time></trkpt><trkpt lat="40.0046215" lon="8.5376519"><ele>1.4000000000000001</ele><time>2026-04-05T14:43:37.074Z</time></trkpt><trkpt lat="40.0045587" lon="8.5375432"><ele>1.6</ele><time>2026-04-05T14:43:38.077Z</time></trkpt><trkpt lat="40.0044986" lon="8.5374267"><ele>1.8</ele><time>2026-04-05T14:43:39.07Z</time></trkpt><trkpt lat="40.0044427" lon="8.537316"><ele>2.0</ele><time>2026-04-05T14:43:40.075Z</time></trkpt><trkpt lat="40.0043936" lon="8.5372179"><ele>2.0</ele><time>2026-04-05T14:43:41.074Z</time></trkpt><trkpt lat="40.0043544" lon="8.537129"><ele>2.0</ele><time>2026-04-05T14:43:42.074Z</time></trkpt><trkpt lat="40.0043184" lon="8.5370526"><ele>2.0</ele><time>2026-04-05T14:43:43.069Z</time></trkpt><trkpt lat="40.0042596" lon="8.5369463"><ele>4.0</ele><time>2026-04-05T14:43:45.092Z</time></trkpt><trkpt lat="40.0042239" lon="8.5368483"><ele>4.0</ele><time>2026-04-05T14:43:48.072Z</time></trkpt></trkseg></trk></gpx>